CFG149 EDDF-LEPA
Flight info
| Callsign | CFG149 |
|---|---|
| Flight time | 2h 0m |
| Altitude | 35000 |
| Route | ANEKI2L/18 ANEKI Y163 HERBI Y164 MOPAN DCT LUTIX DCT BENOT DCT NEMOS DCT GEVEA DCT INCUS DCT BALSI DCT RETNO DCT TUPOX DCT MTG DCT DIVKO DCT VATIR DCT PIVUS N852 VERSO L129 LUNIK |
| Aircraft | A321/M-SDE3FGHIRWY/LB1 |
Departure
| Time | 2026-05-07 17:31 |
|---|---|
| Airport | Frankfurt Main Airport (EDDF) |
Arrival
| Time | 2026-05-07 19:31 |
|---|---|
| Airport | Palma de Mallorca Airport (LEPA) |
| Time | Latitude | Longitude | Altitude | Speed | Heading |
|---|---|---|---|---|---|
| 2026-05-07 16:51 | 50.04429 | 8.56269 | 358 ft | 0 kts | 167° |
| 2026-05-07 17:18 | 50.04434 | 8.56268 | 359 ft | 2 kts | 166° |
| 2026-05-07 17:19 | 50.04450 | 8.56262 | 356 ft | 2 kts | 168° |
| 2026-05-07 17:19 | 50.04466 | 8.56257 | 353 ft | 2 kts | 172° |
| 2026-05-07 17:19 | 50.04483 | 8.56259 | 354 ft | 2 kts | 231° |
| 2026-05-07 17:19 | 50.04491 | 8.56277 | 355 ft | 1 kts | 249° |
| 2026-05-07 17:20 | 50.04491 | 8.56280 | 355 ft | 0 kts | 250° |
| 2026-05-07 17:21 | 50.04488 | 8.56265 | 354 ft | 6 kts | 250° |
| 2026-05-07 17:21 | 50.04470 | 8.56188 | 354 ft | 8 kts | 250° |
| 2026-05-07 17:22 | 50.04453 | 8.56117 | 353 ft | 6 kts | 250° |
| 2026-05-07 17:22 | 50.04435 | 8.56061 | 356 ft | 5 kts | 237° |
| 2026-05-07 17:22 | 50.04395 | 8.56034 | 345 ft | 13 kts | 181° |
| 2026-05-07 17:22 | 50.04298 | 8.56069 | 348 ft | 14 kts | 184° |
| 2026-05-07 17:23 | 50.04247 | 8.55969 | 352 ft | 12 kts | 249° |
| 2026-05-07 17:23 | 50.04218 | 8.55850 | 352 ft | 13 kts | 249° |
| 2026-05-07 17:23 | 50.04176 | 8.55674 | 351 ft | 19 kts | 250° |
| 2026-05-07 17:23 | 50.04131 | 8.55489 | 351 ft | 18 kts | 249° |
| 2026-05-07 17:24 | 50.04089 | 8.55316 | 353 ft | 17 kts | 249° |
| 2026-05-07 17:24 | 50.04050 | 8.55151 | 352 ft | 17 kts | 249° |
| 2026-05-07 17:24 | 50.04001 | 8.54945 | 350 ft | 20 kts | 249° |
| 2026-05-07 17:24 | 50.03956 | 8.54760 | 354 ft | 17 kts | 249° |
| 2026-05-07 17:25 | 50.03916 | 8.54594 | 350 ft | 16 kts | 249° |
| 2026-05-07 17:25 | 50.03882 | 8.54447 | 347 ft | 14 kts | 250° |
| 2026-05-07 17:25 | 50.03839 | 8.54321 | 352 ft | 13 kts | 234° |
| 2026-05-07 17:25 | 50.03795 | 8.54197 | 347 ft | 13 kts | 247° |
| 2026-05-07 17:26 | 50.03762 | 8.54066 | 353 ft | 15 kts | 249° |
| 2026-05-07 17:26 | 50.03721 | 8.53893 | 355 ft | 17 kts | 249° |
| 2026-05-07 17:26 | 50.03682 | 8.53730 | 349 ft | 16 kts | 249° |
| 2026-05-07 17:26 | 50.03645 | 8.53581 | 349 ft | 14 kts | 249° |
| 2026-05-07 17:27 | 50.03609 | 8.53443 | 351 ft | 13 kts | 249° |
| 2026-05-07 17:27 | 50.03574 | 8.53293 | 355 ft | 17 kts | 250° |
| 2026-05-07 17:27 | 50.03534 | 8.53123 | 353 ft | 17 kts | 249° |
| 2026-05-07 17:27 | 50.03494 | 8.52956 | 347 ft | 16 kts | 249° |
| 2026-05-07 17:28 | 50.03452 | 8.52800 | 348 ft | 16 kts | 247° |
| 2026-05-07 17:28 | 50.03406 | 8.52638 | 350 ft | 13 kts | 239° |
| 2026-05-07 17:28 | 50.03342 | 8.52593 | 345 ft | 5 kts | 179° |
| 2026-05-07 17:28 | 50.03341 | 8.52593 | 345 ft | 0 kts | 179° |
| 2026-05-07 17:29 | 50.03312 | 8.52593 | 348 ft | 15 kts | 179° |
| 2026-05-07 17:30 | 50.02960 | 8.52599 | 346 ft | 84 kts | 179° |
| 2026-05-07 17:30 | 50.02193 | 8.52608 | 350 ft | 136 kts | 180° |
| 2026-05-07 17:30 | 50.01104 | 8.52617 | 352 ft | 175 kts | 179° |
| 2026-05-07 17:30 | 49.99844 | 8.52617 | 764 ft | 182 kts | 180° |
| 2026-05-07 17:31 | 49.98543 | 8.52585 | 1208 ft | 193 kts | 182° |
| 2026-05-07 17:31 | 49.97178 | 8.52599 | 1456 ft | 212 kts | 180° |
| 2026-05-07 17:31 | 49.95838 | 8.52716 | 1707 ft | 226 kts | 177° |
| 2026-05-07 17:31 | 49.94261 | 8.52918 | 2075 ft | 239 kts | 177° |
| 2026-05-07 17:32 | 49.92594 | 8.53087 | 2790 ft | 239 kts | 178° |
| 2026-05-07 17:32 | 49.90854 | 8.53240 | 3168 ft | 258 kts | 179° |
| 2026-05-07 17:32 | 49.89036 | 8.53387 | 3928 ft | 263 kts | 179° |
| 2026-05-07 17:32 | 49.87821 | 8.53482 | 4503 ft | 265 kts | 179° |
| 2026-05-07 17:33 | 49.85365 | 8.53662 | 5596 ft | 268 kts | 179° |
| 2026-05-07 17:33 | 49.83483 | 8.53792 | 6371 ft | 271 kts | 180° |
| 2026-05-07 17:33 | 49.81592 | 8.53919 | 7081 ft | 274 kts | 179° |
| 2026-05-07 17:33 | 49.79668 | 8.54051 | 7792 ft | 277 kts | 179° |
| 2026-05-07 17:34 | 49.77731 | 8.54104 | 8490 ft | 279 kts | 186° |
| 2026-05-07 17:34 | 49.75814 | 8.53846 | 9188 ft | 282 kts | 187° |
| 2026-05-07 17:34 | 49.73839 | 8.53577 | 9882 ft | 285 kts | 187° |
| 2026-05-07 17:34 | 49.71851 | 8.53309 | 10517 ft | 288 kts | 187° |
| 2026-05-07 17:35 | 49.69837 | 8.53038 | 11154 ft | 291 kts | 186° |
| 2026-05-07 17:35 | 49.67806 | 8.52768 | 11795 ft | 294 kts | 186° |
| 2026-05-07 17:35 | 49.65784 | 8.52502 | 12444 ft | 297 kts | 186° |
| 2026-05-07 17:35 | 49.63715 | 8.52228 | 13077 ft | 300 kts | 186° |
| 2026-05-07 17:36 | 49.61629 | 8.51953 | 13716 ft | 303 kts | 186° |
| 2026-05-07 17:36 | 49.59513 | 8.51674 | 14300 ft | 306 kts | 186° |
| 2026-05-07 17:36 | 49.57371 | 8.51391 | 14873 ft | 308 kts | 186° |
| 2026-05-07 17:36 | 49.55224 | 8.51110 | 15379 ft | 314 kts | 186° |
| 2026-05-07 17:37 | 49.52976 | 8.50817 | 15496 ft | 333 kts | 186° |
| 2026-05-07 17:37 | 49.50603 | 8.50507 | 15629 ft | 350 kts | 186° |
| 2026-05-07 17:37 | 49.48120 | 8.50183 | 15758 ft | 366 kts | 186° |
| 2026-05-07 17:37 | 49.45527 | 8.49843 | 15886 ft | 381 kts | 186° |
| 2026-05-07 17:38 | 49.42866 | 8.49491 | 16010 ft | 395 kts | 186° |
| 2026-05-07 17:38 | 49.40080 | 8.49124 | 16139 ft | 408 kts | 186° |
| 2026-05-07 17:38 | 49.37214 | 8.48751 | 16263 ft | 419 kts | 186° |
| 2026-05-07 17:38 | 49.34276 | 8.48375 | 16561 ft | 425 kts | 186° |
| 2026-05-07 17:39 | 49.32318 | 8.48125 | 16834 ft | 427 kts | 186° |
| 2026-05-07 17:39 | 49.29340 | 8.47745 | 17273 ft | 430 kts | 186° |
| 2026-05-07 17:39 | 49.26335 | 8.47359 | 17720 ft | 433 kts | 186° |
| 2026-05-07 17:39 | 49.23320 | 8.46964 | 18170 ft | 435 kts | 186° |
| 2026-05-07 17:40 | 49.20326 | 8.46568 | 18553 ft | 437 kts | 186° |
| 2026-05-07 17:40 | 49.17281 | 8.46168 | 18934 ft | 439 kts | 186° |
| 2026-05-07 17:40 | 49.14217 | 8.45771 | 19313 ft | 441 kts | 186° |
| 2026-05-07 17:40 | 49.11153 | 8.45375 | 19683 ft | 443 kts | 186° |
| 2026-05-07 17:41 | 49.08066 | 8.44978 | 20074 ft | 445 kts | 186° |
| 2026-05-07 17:41 | 49.04994 | 8.44289 | 20436 ft | 446 kts | 194° |
| 2026-05-07 17:41 | 49.01959 | 8.43219 | 20818 ft | 448 kts | 194° |
| 2026-05-07 17:41 | 48.98961 | 8.42169 | 21288 ft | 447 kts | 194° |
| 2026-05-07 17:42 | 48.95927 | 8.41112 | 21818 ft | 446 kts | 194° |
| 2026-05-07 17:42 | 48.92900 | 8.40060 | 22361 ft | 444 kts | 194° |
| 2026-05-07 17:42 | 48.89894 | 8.39017 | 22910 ft | 443 kts | 194° |
| 2026-05-07 17:42 | 48.86880 | 8.37976 | 23471 ft | 441 kts | 194° |
| 2026-05-07 17:43 | 48.83972 | 8.36551 | 23975 ft | 438 kts | 203° |
| 2026-05-07 17:43 | 48.81151 | 8.34821 | 24438 ft | 436 kts | 203° |
| 2026-05-07 17:43 | 48.78349 | 8.33098 | 24951 ft | 434 kts | 203° |
| 2026-05-07 17:43 | 48.75545 | 8.31374 | 25442 ft | 432 kts | 203° |
| 2026-05-07 17:44 | 48.72801 | 8.29689 | 25931 ft | 430 kts | 203° |
| 2026-05-07 17:44 | 48.70025 | 8.27990 | 26341 ft | 431 kts | 203° |
| 2026-05-07 17:44 | 48.67211 | 8.26270 | 26467 ft | 438 kts | 203° |
| 2026-05-07 17:44 | 48.64362 | 8.24528 | 26599 ft | 444 kts | 203° |
| 2026-05-07 17:45 | 48.61474 | 8.22761 | 26726 ft | 450 kts | 204° |
| 2026-05-07 17:45 | 48.58584 | 8.20995 | 26860 ft | 456 kts | 203° |
| 2026-05-07 17:45 | 48.55622 | 8.19191 | 27090 ft | 459 kts | 203° |
| 2026-05-07 17:45 | 48.52660 | 8.17396 | 27437 ft | 459 kts | 203° |
| 2026-05-07 17:46 | 48.49684 | 8.15597 | 27802 ft | 459 kts | 203° |
| 2026-05-07 17:46 | 48.46718 | 8.13810 | 28188 ft | 458 kts | 203° |
| 2026-05-07 17:46 | 48.43758 | 8.12025 | 28560 ft | 457 kts | 204° |
| 2026-05-07 17:46 | 48.40801 | 8.10239 | 28942 ft | 456 kts | 204° |
| 2026-05-07 17:47 | 48.37886 | 8.08480 | 29318 ft | 456 kts | 204° |
| 2026-05-07 17:47 | 48.34938 | 8.06701 | 29691 ft | 455 kts | 204° |
| 2026-05-07 17:47 | 48.31995 | 8.04922 | 30069 ft | 454 kts | 204° |
| 2026-05-07 17:47 | 48.29060 | 8.03150 | 30386 ft | 453 kts | 204° |
| 2026-05-07 17:48 | 48.26136 | 8.01393 | 30699 ft | 452 kts | 204° |
| 2026-05-07 17:48 | 48.23253 | 7.99666 | 31005 ft | 451 kts | 204° |
| 2026-05-07 17:48 | 48.20338 | 7.97921 | 31342 ft | 449 kts | 204° |
| 2026-05-07 17:48 | 48.17436 | 7.96174 | 31670 ft | 448 kts | 205° |
| 2026-05-07 17:49 | 48.14693 | 7.94026 | 31987 ft | 444 kts | 212° |
| 2026-05-07 17:49 | 48.12003 | 7.91728 | 32315 ft | 443 kts | 212° |
| 2026-05-07 17:49 | 48.09358 | 7.89452 | 32642 ft | 442 kts | 212° |
| 2026-05-07 17:49 | 48.06695 | 7.87148 | 32976 ft | 441 kts | 212° |
| 2026-05-07 17:50 | 48.04036 | 7.84841 | 33288 ft | 440 kts | 212° |
| 2026-05-07 17:50 | 48.01396 | 7.82547 | 33589 ft | 439 kts | 212° |
| 2026-05-07 17:50 | 47.98762 | 7.80260 | 33922 ft | 437 kts | 212° |
| 2026-05-07 17:50 | 47.96136 | 7.77988 | 34194 ft | 436 kts | 212° |
| 2026-05-07 17:51 | 47.93504 | 7.75715 | 34442 ft | 436 kts | 212° |
| 2026-05-07 17:51 | 47.90873 | 7.73446 | 34657 ft | 436 kts | 212° |
| 2026-05-07 17:51 | 47.88280 | 7.71214 | 34865 ft | 435 kts | 212° |
| 2026-05-07 17:51 | 47.85649 | 7.68956 | 35004 ft | 436 kts | 212° |
| 2026-05-07 17:52 | 47.80389 | 7.64450 | 35032 ft | 435 kts | 212° |
| 2026-05-07 17:52 | 47.75132 | 7.59948 | 35033 ft | 435 kts | 212° |
| 2026-05-07 17:53 | 47.69914 | 7.55484 | 35027 ft | 435 kts | 212° |
| 2026-05-07 17:53 | 47.64650 | 7.51001 | 35025 ft | 435 kts | 212° |
| 2026-05-07 17:54 | 47.59390 | 7.46534 | 35023 ft | 435 kts | 212° |
| 2026-05-07 17:54 | 47.54155 | 7.42100 | 35038 ft | 435 kts | 212° |
| 2026-05-07 17:55 | 47.48887 | 7.37658 | 35025 ft | 435 kts | 212° |
| 2026-05-07 17:55 | 47.43649 | 7.33247 | 35039 ft | 435 kts | 212° |
| 2026-05-07 17:56 | 47.38350 | 7.28771 | 35025 ft | 434 kts | 212° |
| 2026-05-07 17:56 | 47.33129 | 7.24377 | 35036 ft | 434 kts | 212° |
| 2026-05-07 17:57 | 47.28773 | 7.20723 | 35033 ft | 433 kts | 212° |
| 2026-05-07 17:57 | 47.22670 | 7.15629 | 35030 ft | 433 kts | 212° |
| 2026-05-07 17:58 | 47.17431 | 7.11267 | 35039 ft | 432 kts | 213° |
| 2026-05-07 17:58 | 47.12191 | 7.06909 | 35015 ft | 432 kts | 213° |
| 2026-05-07 17:59 | 47.06938 | 7.02540 | 35005 ft | 434 kts | 213° |
| 2026-05-07 17:59 | 47.01705 | 6.98212 | 35006 ft | 435 kts | 213° |
| 2026-05-07 18:00 | 46.96430 | 6.93862 | 35000 ft | 435 kts | 213° |
| 2026-05-07 18:00 | 46.91156 | 6.89504 | 35008 ft | 435 kts | 213° |
| 2026-05-07 18:01 | 46.85906 | 6.85180 | 35009 ft | 435 kts | 213° |
| 2026-05-07 18:01 | 46.80631 | 6.80849 | 35009 ft | 434 kts | 213° |
| 2026-05-07 18:02 | 46.72701 | 6.74371 | 35009 ft | 434 kts | 213° |
| 2026-05-07 18:03 | 46.67454 | 6.70085 | 35005 ft | 433 kts | 213° |
| 2026-05-07 18:03 | 46.62199 | 6.65794 | 35015 ft | 433 kts | 213° |
| 2026-05-07 18:04 | 46.56959 | 6.61534 | 35019 ft | 433 kts | 213° |
| 2026-05-07 18:04 | 46.51704 | 6.57271 | 35008 ft | 433 kts | 213° |
| 2026-05-07 18:05 | 46.46431 | 6.53009 | 35007 ft | 432 kts | 212° |
| 2026-05-07 18:05 | 46.41162 | 6.48757 | 35001 ft | 433 kts | 212° |
| 2026-05-07 18:06 | 46.35897 | 6.44513 | 35002 ft | 433 kts | 212° |
| 2026-05-07 18:06 | 46.30661 | 6.40307 | 35001 ft | 433 kts | 212° |
| 2026-05-07 18:07 | 46.25379 | 6.36075 | 35001 ft | 433 kts | 212° |
| 2026-05-07 18:07 | 46.19871 | 6.32506 | 35003 ft | 437 kts | 202° |
| 2026-05-07 18:08 | 46.14102 | 6.29830 | 35002 ft | 437 kts | 201° |
| 2026-05-07 18:08 | 46.08292 | 6.27175 | 34991 ft | 437 kts | 201° |
| 2026-05-07 18:09 | 46.02495 | 6.24507 | 34969 ft | 436 kts | 201° |
| 2026-05-07 18:09 | 45.96731 | 6.21849 | 34967 ft | 436 kts | 201° |
| 2026-05-07 18:10 | 45.90948 | 6.19193 | 34966 ft | 436 kts | 201° |
| 2026-05-07 18:10 | 45.85169 | 6.16545 | 34966 ft | 436 kts | 201° |
| 2026-05-07 18:11 | 45.79421 | 6.13914 | 34967 ft | 435 kts | 201° |
| 2026-05-07 18:11 | 45.73631 | 6.11273 | 34973 ft | 436 kts | 201° |
| 2026-05-07 18:12 | 45.67844 | 6.08645 | 34972 ft | 435 kts | 201° |
| 2026-05-07 18:12 | 45.62097 | 6.06043 | 34969 ft | 435 kts | 201° |
| 2026-05-07 18:13 | 45.56310 | 6.03415 | 34974 ft | 435 kts | 201° |
| 2026-05-07 18:13 | 45.50534 | 6.00806 | 34978 ft | 435 kts | 201° |
| 2026-05-07 18:14 | 45.44759 | 5.98206 | 34973 ft | 434 kts | 201° |
| 2026-05-07 18:14 | 45.39022 | 5.95624 | 34975 ft | 434 kts | 201° |
| 2026-05-07 18:15 | 45.33247 | 5.93021 | 34979 ft | 434 kts | 201° |
| 2026-05-07 18:15 | 45.27517 | 5.90449 | 34984 ft | 434 kts | 201° |
| 2026-05-07 18:16 | 45.21741 | 5.87859 | 34988 ft | 434 kts | 201° |
| 2026-05-07 18:16 | 45.15971 | 5.85282 | 34986 ft | 434 kts | 201° |
| 2026-05-07 18:17 | 45.10245 | 5.82737 | 34988 ft | 433 kts | 201° |
| 2026-05-07 18:17 | 45.04462 | 5.80170 | 34990 ft | 433 kts | 201° |
| 2026-05-07 18:18 | 44.98747 | 5.77627 | 34988 ft | 433 kts | 201° |
| 2026-05-07 18:18 | 44.93009 | 5.75085 | 34992 ft | 432 kts | 201° |
| 2026-05-07 18:19 | 44.87269 | 5.72552 | 34988 ft | 432 kts | 201° |
| 2026-05-07 18:19 | 44.81552 | 5.70042 | 34980 ft | 431 kts | 201° |
| 2026-05-07 18:20 | 44.75834 | 5.67526 | 34985 ft | 430 kts | 201° |
| 2026-05-07 18:20 | 44.70117 | 5.65019 | 34980 ft | 429 kts | 201° |
| 2026-05-07 18:21 | 44.65378 | 5.62940 | 34974 ft | 428 kts | 201° |
| 2026-05-07 18:21 | 44.59692 | 5.60445 | 34980 ft | 427 kts | 201° |
| 2026-05-07 18:22 | 44.54010 | 5.57966 | 34978 ft | 426 kts | 201° |
| 2026-05-07 18:22 | 44.48370 | 5.55512 | 34975 ft | 425 kts | 201° |
| 2026-05-07 18:23 | 44.42709 | 5.53051 | 34974 ft | 425 kts | 202° |
| 2026-05-07 18:23 | 44.37048 | 5.50601 | 34973 ft | 424 kts | 202° |
| 2026-05-07 18:24 | 44.31424 | 5.48167 | 34977 ft | 423 kts | 202° |
| 2026-05-07 18:24 | 44.25826 | 5.45750 | 34977 ft | 422 kts | 202° |
| 2026-05-07 18:25 | 44.20214 | 5.43324 | 34980 ft | 421 kts | 202° |
| 2026-05-07 18:25 | 44.14607 | 5.40913 | 34978 ft | 420 kts | 202° |
| 2026-05-07 18:26 | 44.09056 | 5.38531 | 34975 ft | 419 kts | 202° |
| 2026-05-07 18:26 | 44.03477 | 5.36145 | 34973 ft | 418 kts | 202° |
| 2026-05-07 18:27 | 43.97908 | 5.33764 | 34975 ft | 417 kts | 202° |
| 2026-05-07 18:27 | 43.92398 | 5.31408 | 34977 ft | 416 kts | 202° |
| 2026-05-07 18:28 | 43.86859 | 5.29043 | 34975 ft | 415 kts | 202° |
| 2026-05-07 18:28 | 43.81334 | 5.26689 | 34977 ft | 414 kts | 202° |
| 2026-05-07 18:29 | 43.75848 | 5.24357 | 34976 ft | 414 kts | 202° |
| 2026-05-07 18:29 | 43.70334 | 5.22028 | 34974 ft | 413 kts | 202° |
| 2026-05-07 18:30 | 43.64834 | 5.19711 | 34977 ft | 413 kts | 202° |
| 2026-05-07 18:30 | 43.59329 | 5.17390 | 34973 ft | 413 kts | 202° |
| 2026-05-07 18:31 | 43.53822 | 5.15069 | 34972 ft | 412 kts | 202° |
| 2026-05-07 18:31 | 43.48373 | 5.12774 | 34971 ft | 412 kts | 202° |
| 2026-05-07 18:32 | 43.42873 | 5.10461 | 34969 ft | 412 kts | 202° |
| 2026-05-07 18:32 | 43.37561 | 5.07606 | 34964 ft | 404 kts | 214° |
| 2026-05-07 18:33 | 43.32951 | 5.03303 | 34963 ft | 402 kts | 218° |
| 2026-05-07 18:33 | 43.28323 | 4.98955 | 34962 ft | 402 kts | 217° |
| 2026-05-07 18:34 | 43.23718 | 4.94641 | 34962 ft | 402 kts | 217° |
| 2026-05-07 18:34 | 43.19094 | 4.90303 | 34961 ft | 402 kts | 217° |
| 2026-05-07 18:35 | 43.14456 | 4.85956 | 34959 ft | 402 kts | 217° |
| 2026-05-07 18:35 | 43.09830 | 4.81633 | 34963 ft | 402 kts | 217° |
| 2026-05-07 18:36 | 43.05206 | 4.77388 | 34962 ft | 403 kts | 212° |
| 2026-05-07 18:36 | 43.00240 | 4.73752 | 34964 ft | 405 kts | 209° |
| 2026-05-07 18:37 | 42.95119 | 4.70585 | 34960 ft | 407 kts | 206° |
| 2026-05-07 18:37 | 42.89851 | 4.67703 | 34964 ft | 407 kts | 205° |
| 2026-05-07 18:38 | 42.84560 | 4.64916 | 34963 ft | 407 kts | 205° |
| 2026-05-07 18:38 | 42.79276 | 4.62091 | 34963 ft | 407 kts | 205° |
| 2026-05-07 18:39 | 42.74012 | 4.59237 | 34967 ft | 407 kts | 205° |
| 2026-05-07 18:39 | 42.68779 | 4.56395 | 34968 ft | 407 kts | 205° |
| 2026-05-07 18:40 | 42.63538 | 4.53568 | 34965 ft | 406 kts | 205° |
| 2026-05-07 18:40 | 42.58276 | 4.50738 | 34964 ft | 406 kts | 205° |
| 2026-05-07 18:41 | 42.53010 | 4.47915 | 34961 ft | 406 kts | 205° |
| 2026-05-07 18:41 | 42.47737 | 4.45085 | 34964 ft | 406 kts | 205° |
| 2026-05-07 18:42 | 42.42495 | 4.42276 | 34963 ft | 407 kts | 205° |
| 2026-05-07 18:42 | 42.37225 | 4.39463 | 34964 ft | 407 kts | 205° |
| 2026-05-07 18:43 | 42.31956 | 4.36647 | 34964 ft | 407 kts | 204° |
| 2026-05-07 18:43 | 42.26708 | 4.33851 | 34970 ft | 407 kts | 204° |
| 2026-05-07 18:44 | 42.21421 | 4.31045 | 34899 ft | 406 kts | 204° |
| 2026-05-07 18:44 | 42.18793 | 4.29653 | 34286 ft | 405 kts | 204° |
| 2026-05-07 18:44 | 42.16164 | 4.28260 | 33560 ft | 405 kts | 204° |
| 2026-05-07 18:44 | 42.13566 | 4.26882 | 32816 ft | 406 kts | 204° |
| 2026-05-07 18:45 | 42.10928 | 4.25484 | 32348 ft | 409 kts | 204° |
| 2026-05-07 18:45 | 42.08283 | 4.24086 | 31958 ft | 406 kts | 204° |
| 2026-05-07 18:45 | 42.05649 | 4.22697 | 31569 ft | 407 kts | 203° |
| 2026-05-07 18:45 | 42.03003 | 4.21302 | 31190 ft | 409 kts | 203° |
| 2026-05-07 18:46 | 42.00342 | 4.19897 | 30815 ft | 411 kts | 203° |
| 2026-05-07 18:46 | 41.97696 | 4.18503 | 30447 ft | 413 kts | 203° |
| 2026-05-07 18:46 | 41.95016 | 4.17091 | 30085 ft | 415 kts | 203° |
| 2026-05-07 18:46 | 41.92312 | 4.15668 | 29669 ft | 417 kts | 203° |
| 2026-05-07 18:47 | 41.89594 | 4.14240 | 29248 ft | 419 kts | 203° |
| 2026-05-07 18:47 | 41.86873 | 4.12809 | 28825 ft | 420 kts | 202° |
| 2026-05-07 18:47 | 41.84141 | 4.11379 | 28410 ft | 421 kts | 202° |
| 2026-05-07 18:47 | 41.81410 | 4.09952 | 28003 ft | 420 kts | 202° |
| 2026-05-07 18:48 | 41.78722 | 4.08548 | 27599 ft | 418 kts | 202° |
| 2026-05-07 18:48 | 41.76020 | 4.07137 | 27213 ft | 416 kts | 202° |
| 2026-05-07 18:48 | 41.73318 | 4.05727 | 26826 ft | 415 kts | 202° |
| 2026-05-07 18:48 | 41.70626 | 4.04320 | 26446 ft | 414 kts | 202° |
| 2026-05-07 18:49 | 41.67940 | 4.02916 | 26060 ft | 413 kts | 202° |
| 2026-05-07 18:49 | 41.65270 | 4.01522 | 25691 ft | 412 kts | 202° |
| 2026-05-07 18:49 | 41.62624 | 4.00142 | 25325 ft | 411 kts | 202° |
| 2026-05-07 18:49 | 41.59960 | 3.98751 | 24960 ft | 410 kts | 202° |
| 2026-05-07 18:50 | 41.57299 | 3.97364 | 24602 ft | 409 kts | 202° |
| 2026-05-07 18:50 | 41.54648 | 3.95987 | 24251 ft | 408 kts | 202° |
| 2026-05-07 18:50 | 41.52003 | 3.94615 | 23897 ft | 407 kts | 202° |
| 2026-05-07 18:50 | 41.49356 | 3.93242 | 23547 ft | 406 kts | 202° |
| 2026-05-07 18:51 | 41.46714 | 3.91874 | 23138 ft | 405 kts | 202° |
| 2026-05-07 18:51 | 41.44124 | 3.90534 | 22738 ft | 404 kts | 202° |
| 2026-05-07 18:51 | 41.41506 | 3.89180 | 22327 ft | 402 kts | 202° |
| 2026-05-07 18:51 | 41.38896 | 3.87834 | 21936 ft | 400 kts | 202° |
| 2026-05-07 18:52 | 41.36300 | 3.86498 | 21544 ft | 399 kts | 201° |
| 2026-05-07 18:52 | 41.33713 | 3.85169 | 21153 ft | 397 kts | 201° |
| 2026-05-07 18:52 | 41.31137 | 3.83844 | 20775 ft | 395 kts | 201° |
| 2026-05-07 18:52 | 41.28578 | 3.82528 | 20403 ft | 393 kts | 201° |
| 2026-05-07 18:53 | 41.26057 | 3.81232 | 20030 ft | 392 kts | 201° |
| 2026-05-07 18:53 | 41.23518 | 3.79926 | 19664 ft | 390 kts | 201° |
| 2026-05-07 18:53 | 41.20978 | 3.78618 | 19305 ft | 389 kts | 201° |
| 2026-05-07 18:53 | 41.18446 | 3.77317 | 18944 ft | 388 kts | 200° |
| 2026-05-07 18:54 | 41.15942 | 3.76034 | 18591 ft | 386 kts | 200° |
| 2026-05-07 18:54 | 41.13424 | 3.74743 | 18233 ft | 385 kts | 200° |
| 2026-05-07 18:54 | 41.10961 | 3.73471 | 17853 ft | 383 kts | 200° |
| 2026-05-07 18:54 | 41.08476 | 3.72184 | 17477 ft | 382 kts | 200° |
| 2026-05-07 18:55 | 41.05990 | 3.70898 | 17108 ft | 380 kts | 200° |
| 2026-05-07 18:55 | 41.03558 | 3.69642 | 16746 ft | 379 kts | 200° |
| 2026-05-07 18:55 | 41.01096 | 3.68373 | 16385 ft | 377 kts | 200° |
| 2026-05-07 18:55 | 40.98656 | 3.67117 | 16026 ft | 375 kts | 200° |
| 2026-05-07 18:56 | 40.96223 | 3.65865 | 15672 ft | 374 kts | 200° |
| 2026-05-07 18:56 | 40.93801 | 3.64619 | 15324 ft | 372 kts | 200° |
| 2026-05-07 18:56 | 40.91420 | 3.63398 | 14987 ft | 371 kts | 200° |
| 2026-05-07 18:56 | 40.89018 | 3.62168 | 14648 ft | 370 kts | 200° |
| 2026-05-07 18:57 | 40.86616 | 3.60941 | 14307 ft | 369 kts | 200° |
| 2026-05-07 18:57 | 40.84226 | 3.59720 | 13974 ft | 368 kts | 199° |
| 2026-05-07 18:57 | 40.81827 | 3.58495 | 13629 ft | 368 kts | 200° |
| 2026-05-07 18:57 | 40.79435 | 3.57271 | 13253 ft | 367 kts | 199° |
| 2026-05-07 18:58 | 40.77092 | 3.56071 | 12889 ft | 365 kts | 199° |
| 2026-05-07 18:58 | 40.74733 | 3.54864 | 12518 ft | 360 kts | 200° |
| 2026-05-07 18:58 | 40.72415 | 3.53681 | 12155 ft | 354 kts | 200° |
| 2026-05-07 18:58 | 40.70145 | 3.52526 | 11793 ft | 347 kts | 200° |
| 2026-05-07 18:59 | 40.67895 | 3.51384 | 11439 ft | 341 kts | 200° |
| 2026-05-07 18:59 | 40.65691 | 3.50265 | 11090 ft | 336 kts | 200° |
| 2026-05-07 18:59 | 40.63523 | 3.49165 | 10728 ft | 331 kts | 201° |
| 2026-05-07 18:59 | 40.61414 | 3.48095 | 10406 ft | 327 kts | 201° |
| 2026-05-07 19:00 | 40.59299 | 3.47022 | 10073 ft | 322 kts | 201° |
| 2026-05-07 19:00 | 40.57233 | 3.45976 | 9901 ft | 313 kts | 201° |
| 2026-05-07 19:00 | 40.55232 | 3.44963 | 9768 ft | 301 kts | 201° |
| 2026-05-07 19:00 | 40.53319 | 3.43992 | 9519 ft | 295 kts | 201° |
| 2026-05-07 19:01 | 40.51407 | 3.43022 | 9145 ft | 293 kts | 200° |
| 2026-05-07 19:01 | 40.49507 | 3.42060 | 8751 ft | 292 kts | 200° |
| 2026-05-07 19:01 | 40.48247 | 3.41421 | 8489 ft | 292 kts | 200° |
| 2026-05-07 19:01 | 40.46349 | 3.40496 | 8101 ft | 291 kts | 197° |
| 2026-05-07 19:02 | 40.44391 | 3.39845 | 7954 ft | 289 kts | 189° |
| 2026-05-07 19:02 | 40.42390 | 3.39499 | 7956 ft | 290 kts | 182° |
| 2026-05-07 19:02 | 40.40364 | 3.39465 | 7959 ft | 290 kts | 175° |
| 2026-05-07 19:02 | 40.38344 | 3.39589 | 7964 ft | 290 kts | 175° |
| 2026-05-07 19:03 | 40.36326 | 3.39698 | 7990 ft | 290 kts | 176° |
| 2026-05-07 19:03 | 40.34330 | 3.39801 | 7962 ft | 291 kts | 175° |
| 2026-05-07 19:03 | 40.32310 | 3.39907 | 7964 ft | 290 kts | 176° |
| 2026-05-07 19:03 | 40.30285 | 3.40019 | 7959 ft | 290 kts | 175° |
| 2026-05-07 19:04 | 40.28276 | 3.40132 | 7964 ft | 289 kts | 176° |
| 2026-05-07 19:04 | 40.26265 | 3.40247 | 7960 ft | 289 kts | 175° |
| 2026-05-07 19:04 | 40.24262 | 3.40362 | 7966 ft | 288 kts | 175° |
| 2026-05-07 19:04 | 40.22250 | 3.40480 | 7962 ft | 288 kts | 175° |
| 2026-05-07 19:05 | 40.20245 | 3.40598 | 7958 ft | 287 kts | 176° |
| 2026-05-07 19:05 | 40.18267 | 3.40709 | 7960 ft | 287 kts | 176° |
| 2026-05-07 19:05 | 40.16267 | 3.40819 | 7962 ft | 287 kts | 175° |
| 2026-05-07 19:05 | 40.14273 | 3.40932 | 7958 ft | 287 kts | 175° |
| 2026-05-07 19:06 | 40.12274 | 3.41043 | 7956 ft | 286 kts | 175° |
| 2026-05-07 19:06 | 40.08321 | 3.41269 | 7970 ft | 285 kts | 175° |
| 2026-05-07 19:06 | 40.06335 | 3.41383 | 7957 ft | 285 kts | 175° |
| 2026-05-07 19:07 | 40.04357 | 3.41494 | 7962 ft | 285 kts | 175° |
| 2026-05-07 19:07 | 40.02375 | 3.41604 | 7960 ft | 284 kts | 175° |
| 2026-05-07 19:07 | 40.00400 | 3.41712 | 7966 ft | 283 kts | 175° |
| 2026-05-07 19:07 | 39.98431 | 3.41825 | 7967 ft | 283 kts | 175° |
| 2026-05-07 19:08 | 39.96457 | 3.41938 | 7964 ft | 283 kts | 175° |
| 2026-05-07 19:08 | 39.94488 | 3.42052 | 7961 ft | 282 kts | 175° |
| 2026-05-07 19:08 | 39.92523 | 3.42162 | 7961 ft | 282 kts | 175° |
| 2026-05-07 19:08 | 39.90587 | 3.42268 | 7960 ft | 282 kts | 175° |
| 2026-05-07 19:09 | 39.88626 | 3.42377 | 7960 ft | 282 kts | 175° |
| 2026-05-07 19:09 | 39.86665 | 3.42489 | 7956 ft | 281 kts | 175° |
| 2026-05-07 19:09 | 39.84716 | 3.42601 | 7955 ft | 281 kts | 175° |
| 2026-05-07 19:09 | 39.82756 | 3.42713 | 7959 ft | 280 kts | 175° |
| 2026-05-07 19:10 | 39.80808 | 3.42822 | 7734 ft | 278 kts | 175° |
| 2026-05-07 19:10 | 39.78904 | 3.42927 | 7378 ft | 276 kts | 175° |
| 2026-05-07 19:10 | 39.76989 | 3.43035 | 7028 ft | 274 kts | 175° |
| 2026-05-07 19:10 | 39.75094 | 3.43038 | 6685 ft | 272 kts | 183° |
| 2026-05-07 19:11 | 39.73219 | 3.42604 | 6346 ft | 272 kts | 193° |
| 2026-05-07 19:11 | 39.71460 | 3.41727 | 5977 ft | 272 kts | 204° |
| 2026-05-07 19:11 | 39.69867 | 3.40450 | 5625 ft | 272 kts | 215° |
| 2026-05-07 19:11 | 39.68463 | 3.38807 | 5253 ft | 273 kts | 225° |
| 2026-05-07 19:12 | 39.67297 | 3.36838 | 5016 ft | 273 kts | 236° |
| 2026-05-07 19:12 | 39.66398 | 3.34654 | 5014 ft | 275 kts | 242° |
| 2026-05-07 19:12 | 39.65539 | 3.32428 | 5025 ft | 275 kts | 242° |
| 2026-05-07 19:12 | 39.64678 | 3.30209 | 5026 ft | 275 kts | 243° |
| 2026-05-07 19:13 | 39.63827 | 3.28013 | 5013 ft | 276 kts | 241° |
| 2026-05-07 19:13 | 39.62967 | 3.25789 | 4973 ft | 275 kts | 241° |
| 2026-05-07 19:13 | 39.62109 | 3.23570 | 4569 ft | 274 kts | 242° |
| 2026-05-07 19:13 | 39.61251 | 3.21346 | 4126 ft | 275 kts | 242° |
| 2026-05-07 19:14 | 39.60410 | 3.19168 | 4008 ft | 274 kts | 243° |
| 2026-05-07 19:14 | 39.59555 | 3.16958 | 4024 ft | 274 kts | 242° |
| 2026-05-07 19:14 | 39.58698 | 3.14750 | 4021 ft | 274 kts | 242° |
| 2026-05-07 19:14 | 39.57839 | 3.12537 | 4018 ft | 274 kts | 241° |
| 2026-05-07 19:15 | 39.56982 | 3.10328 | 4019 ft | 274 kts | 242° |
| 2026-05-07 19:15 | 39.56155 | 3.08196 | 4016 ft | 260 kts | 242° |
| 2026-05-07 19:15 | 39.55371 | 3.06174 | 4037 ft | 240 kts | 241° |
| 2026-05-07 19:15 | 39.54650 | 3.04310 | 4022 ft | 221 kts | 242° |
| 2026-05-07 19:16 | 39.53997 | 3.02626 | 4028 ft | 203 kts | 242° |
| 2026-05-07 19:16 | 39.53365 | 3.01004 | 4041 ft | 201 kts | 242° |
| 2026-05-07 19:16 | 39.52740 | 2.99393 | 4030 ft | 200 kts | 242° |
| 2026-05-07 19:16 | 39.52124 | 2.97785 | 4030 ft | 200 kts | 242° |
| 2026-05-07 19:17 | 39.51507 | 2.96173 | 4030 ft | 200 kts | 243° |
| 2026-05-07 19:17 | 39.50885 | 2.94549 | 4031 ft | 200 kts | 242° |
| 2026-05-07 19:17 | 39.50256 | 2.92934 | 4030 ft | 201 kts | 242° |
| 2026-05-07 19:17 | 39.49625 | 2.91317 | 4026 ft | 201 kts | 241° |
| 2026-05-07 19:18 | 39.48998 | 2.89704 | 4032 ft | 200 kts | 241° |
| 2026-05-07 19:18 | 39.48376 | 2.88112 | 4032 ft | 200 kts | 241° |
| 2026-05-07 19:18 | 39.47737 | 2.86502 | 4033 ft | 201 kts | 241° |
| 2026-05-07 19:18 | 39.47100 | 2.84892 | 4033 ft | 201 kts | 242° |
| 2026-05-07 19:19 | 39.46451 | 2.83284 | 4033 ft | 200 kts | 241° |
| 2026-05-07 19:19 | 39.45778 | 2.81727 | 4039 ft | 200 kts | 239° |
| 2026-05-07 19:19 | 39.45058 | 2.80185 | 4036 ft | 200 kts | 237° |
| 2026-05-07 19:19 | 39.44341 | 2.78650 | 4036 ft | 199 kts | 238° |
| 2026-05-07 19:20 | 39.43625 | 2.77119 | 4032 ft | 198 kts | 238° |
| 2026-05-07 19:20 | 39.42918 | 2.75591 | 4029 ft | 198 kts | 237° |
| 2026-05-07 19:20 | 39.42220 | 2.74080 | 4031 ft | 197 kts | 237° |
| 2026-05-07 19:20 | 39.41512 | 2.72537 | 4029 ft | 201 kts | 238° |
| 2026-05-07 19:21 | 39.40797 | 2.70987 | 4029 ft | 200 kts | 237° |
| 2026-05-07 19:21 | 39.40075 | 2.69451 | 4030 ft | 201 kts | 237° |
| 2026-05-07 19:21 | 39.39335 | 2.67906 | 4031 ft | 202 kts | 238° |
| 2026-05-07 19:21 | 39.38593 | 2.66363 | 4030 ft | 203 kts | 237° |
| 2026-05-07 19:22 | 39.37849 | 2.64809 | 4031 ft | 202 kts | 237° |
| 2026-05-07 19:22 | 39.37104 | 2.63265 | 4034 ft | 201 kts | 237° |
| 2026-05-07 19:22 | 39.36364 | 2.61737 | 4028 ft | 201 kts | 237° |
| 2026-05-07 19:22 | 39.35627 | 2.60192 | 4027 ft | 201 kts | 237° |
| 2026-05-07 19:23 | 39.34964 | 2.58618 | 3964 ft | 199 kts | 252° |
| 2026-05-07 19:23 | 39.34967 | 2.56878 | 3565 ft | 195 kts | 289° |
| 2026-05-07 19:23 | 39.35469 | 2.55252 | 3143 ft | 196 kts | 296° |
| 2026-05-07 19:23 | 39.36026 | 2.53667 | 2765 ft | 197 kts | 298° |
| 2026-05-07 19:24 | 39.36581 | 2.52052 | 2450 ft | 195 kts | 296° |
| 2026-05-07 19:24 | 39.37144 | 2.50463 | 2139 ft | 193 kts | 297° |
| 2026-05-07 19:24 | 39.37886 | 2.49047 | 2091 ft | 189 kts | 323° |
| 2026-05-07 19:24 | 39.39072 | 2.48469 | 2098 ft | 182 kts | 1° |
| 2026-05-07 19:25 | 39.40273 | 2.48819 | 2099 ft | 176 kts | 32° |
| 2026-05-07 19:25 | 39.41309 | 2.49666 | 2105 ft | 178 kts | 28° |
| 2026-05-07 19:25 | 39.42435 | 2.50270 | 2098 ft | 172 kts | 23° |
| 2026-05-07 19:25 | 39.43537 | 2.50787 | 2111 ft | 168 kts | 22° |
| 2026-05-07 19:26 | 39.44652 | 2.51288 | 2110 ft | 171 kts | 22° |
| 2026-05-07 19:26 | 39.45642 | 2.52102 | 2102 ft | 167 kts | 47° |
| 2026-05-07 19:26 | 39.46294 | 2.53345 | 2105 ft | 167 kts | 59° |
| 2026-05-07 19:26 | 39.46903 | 2.54621 | 2104 ft | 167 kts | 61° |
| 2026-05-07 19:27 | 39.47514 | 2.55905 | 2103 ft | 167 kts | 59° |
| 2026-05-07 19:27 | 39.48118 | 2.57173 | 2097 ft | 164 kts | 58° |
| 2026-05-07 19:27 | 39.48714 | 2.58428 | 2108 ft | 166 kts | 59° |
| 2026-05-07 19:27 | 39.49321 | 2.59703 | 2014 ft | 166 kts | 58° |
| 2026-05-07 19:28 | 39.49899 | 2.60920 | 1836 ft | 149 kts | 59° |
| 2026-05-07 19:28 | 39.50432 | 2.62041 | 1668 ft | 143 kts | 59° |
| 2026-05-07 19:28 | 39.50948 | 2.63127 | 1470 ft | 142 kts | 60° |
| 2026-05-07 19:28 | 39.51459 | 2.64204 | 1285 ft | 141 kts | 59° |
| 2026-05-07 19:29 | 39.51972 | 2.65286 | 1099 ft | 140 kts | 60° |
| 2026-05-07 19:29 | 39.52479 | 2.66353 | 908 ft | 139 kts | 58° |
| 2026-05-07 19:29 | 39.52980 | 2.67411 | 721 ft | 139 kts | 58° |
| 2026-05-07 19:29 | 39.53483 | 2.68476 | 571 ft | 138 kts | 58° |
| 2026-05-07 19:30 | 39.53996 | 2.69562 | 354 ft | 140 kts | 57° |
| 2026-05-07 19:30 | 39.54508 | 2.70634 | 154 ft | 140 kts | 58° |
| 2026-05-07 19:30 | 39.54992 | 2.71657 | 27 ft | 122 kts | 58° |
| 2026-05-07 19:30 | 39.55347 | 2.72406 | 20 ft | 72 kts | 58° |
| 2026-05-07 19:31 | 39.55537 | 2.72801 | 22 ft | 40 kts | 58° |
| 2026-05-07 19:31 | 39.55669 | 2.73078 | 21 ft | 33 kts | 60° |
| 2026-05-07 19:31 | 39.55714 | 2.73309 | 18 ft | 23 kts | 88° |
| 2026-05-07 19:31 | 39.55697 | 2.73434 | 18 ft | 10 kts | 130° |
| 2026-05-07 19:32 | 39.55654 | 2.73471 | 19 ft | 7 kts | 149° |
| 2026-05-07 19:32 | 39.55610 | 2.73509 | 19 ft | 13 kts | 147° |
| 2026-05-07 19:32 | 39.55528 | 2.73568 | 20 ft | 11 kts | 168° |
| 2026-05-07 19:32 | 39.55481 | 2.73527 | 20 ft | 7 kts | 237° |
| 2026-05-07 19:33 | 39.55428 | 2.73453 | 21 ft | 15 kts | 194° |
| 2026-05-07 19:33 | 39.55346 | 2.73503 | 21 ft | 11 kts | 148° |
| 2026-05-07 19:33 | 39.55281 | 2.73556 | 22 ft | 13 kts | 143° |
| 2026-05-07 19:33 | 39.55216 | 2.73609 | 23 ft | 9 kts | 149° |
| 2026-05-07 19:34 | 39.55175 | 2.73634 | 24 ft | 5 kts | 158° |
| 2026-05-07 19:34 | 39.55129 | 2.73591 | 25 ft | 11 kts | 237° |
| 2026-05-07 19:34 | 39.55091 | 2.73514 | 26 ft | 9 kts | 238° |
| 2026-05-07 19:34 | 39.55065 | 2.73460 | 26 ft | 5 kts | 238° |
| 2026-05-07 19:35 | 39.55045 | 2.73434 | 27 ft | 4 kts | 199° |
| 2026-05-07 19:35 | 39.55009 | 2.73440 | 26 ft | 2 kts | 171° |
| 2026-05-07 19:35 | 39.55001 | 2.73441 | 26 ft | 0 kts | 171° |